KEDE/EDE METAR and TAF weather

Enter ICAO airport designator
Station Type Date Time Source
KEDE METAR 2020/11/25 23:15 UTC NOAA

KEDE 252315Z AUTO 12003KT 10SM SCT080 16/13 A3026 RMK AO2 T01600134


Station Type Date Time Source
KEDE Decoded METAR 2020/11/25 23:15 UTC NOAA

Edenton, Northeastern Regional Airport, NC, United States (KEDE) 36-01-40N 076-34-02W
Nov 25, 2020 - 06:15 PM EST / 2020.11.25 2315 UTC
Wind: from the ESE (120 degrees) at 3 MPH (3 KT):0
Visibility: 10 mile(s):0
Sky conditions: partly cloudy
Temperature: 60.8 F (16.0 C)
Dew Point: 56.1 F (13.4 C)
Relative Humidity: 84%
Pressure (altimeter): 30.26 in. Hg (1024 hPa)
ob: KEDE 252315Z AUTO 12003KT 10SM SCT080 16/13 A3026 RMK AO2 T01600134
cycle: 23

Station Type Date Time Source
KEDE TAF UTC NOAA

Error!

Example: see airport list